Time;durP1;ratioP1;P1;durP2;ratioP2;P2;SDS_P1;SDS_P2;PMS_P1;PMS_P2;Temp;Humidity;BMP_temperature;BMP_pressure;BME280_temperature;BME280_humidity;BME280_pressure;Samples;Min_cycle;Max_cycle;Signal;HPM_P1;HPM_P2
2023/04/14 00:02:22;;;;;;;13.37;10.90;;;;;;;;;;5017861;28;20335;-83
2023/04/14 00:04:52;;;;;;;13.50;11.30;;;;;;;;;;5007053;28;20314;-83
2023/04/14 00:07:20;;;;;;;11.77;10.47;;;;;;;;;;4993461;28;20591;-85
2023/04/14 00:09:45;;;;;;;12.30;10.13;;;;;;;;;;5017052;28;20229;-84
2023/04/14 00:12:14;;;;;;;11.10;9.63;;;;;;;;;;4999018;28;20227;-86
2023/04/14 00:14:41;;;;;;;14.07;11.50;;;;;;;;;;5031892;28;20266;-86
2023/04/14 00:17:10;;;;;;;14.67;11.50;;;;;;;;;;4984031;28;20218;-86
2023/04/14 00:19:36;;;;;;;16.43;12.23;;;;;;;;;;5045755;28;20701;-85
2023/04/14 00:22:06;;;;;;;13.83;12.20;;;;;;;;;;5013969;28;20223;-86
2023/04/14 00:24:42;;;;;;;16.70;12.90;;;;;;;;;;5029996;28;20926;-83
2023/04/14 00:27:10;;;;;;;16.13;12.47;;;;;;;;;;5001615;28;20251;-84
2023/04/14 00:29:39;;;;;;;17.33;13.07;;;;;;;;;;5019104;28;20315;-86
2023/04/14 00:32:07;;;;;;;13.93;12.20;;;;;;;;;;4984051;28;20258;-86
2023/04/14 00:34:35;;;;;;;14.83;11.97;;;;;;;;;;5019392;28;20224;-85
2023/04/14 00:37:05;;;;;;;15.03;11.63;;;;;;;;;;4985766;28;20239;-86
2023/04/14 00:39:31;;;;;;;15.43;12.00;;;;;;;;;;5049794;28;20227;-84
2023/04/14 00:41:56;;;;;;;15.03;11.90;;;;;;;;;;5000426;28;20219;-86
2023/04/14 00:44:24;;;;;;;12.97;11.53;;;;;;;;;;4984211;28;21568;-86
2023/04/14 00:46:50;;;;;;;17.03;11.83;;;;;;;;;;5001094;28;20219;-83
2023/04/14 00:49:16;;;;;;;16.17;12.40;;;;;;;;;;4999885;28;20255;-84
2023/04/14 00:51:42;;;;;;;19.37;12.53;;;;;;;;;;5030032;28;20220;-84
2023/04/14 00:54:08;;;;;;;15.67;11.93;;;;;;;;;;4996504;28;20220;-85
2023/04/14 00:56:34;;;;;;;14.77;12.37;;;;;;;;;;5015365;28;20234;-86
2023/04/14 00:59:00;;;;;;;14.80;12.10;;;;;;;;;;5004771;28;20220;-86
2023/04/14 01:01:29;;;;;;;15.67;12.33;;;;;;;;;;4991929;28;20219;-84
2023/04/14 01:03:57;;;;;;;15.13;11.73;;;;;;;;;;5002224;28;20220;-84
2023/04/14 01:06:22;;;;;;;15.83;12.93;;;;;;;;;;5020102;28;20299;-86
2023/04/14 01:08:50;;;;;;;17.53;13.13;;;;;;;;;;5015565;28;20224;-86
2023/04/14 01:11:38;;;;;;;16.53;12.50;;;;;;;;;;5003397;28;20251;-86
2023/04/14 01:14:17;;;;;;;21.97;13.23;;;;;;;;;;5031227;28;20216;-86
2023/04/14 01:16:44;;;;;;;18.70;13.03;;;;;;;;;;5044177;28;20680;-84
2023/04/14 01:19:24;;;;;;;16.80;13.77;;;;;;;;;;5001857;28;20704;-86
2023/04/14 01:21:55;;;;;;;15.33;12.43;;;;;;;;;;5030234;28;20243;-84
2023/04/14 01:24:25;;;;;;;16.50;13.17;;;;;;;;;;5005039;28;20223;-86
2023/04/14 01:27:05;;;;;;;17.00;12.30;;;;;;;;;;5033705;28;20234;-83
2023/04/14 01:29:41;;;;;;;20.70;13.27;;;;;;;;;;5017720;28;20280;-82
2023/04/14 01:32:10;;;;;;;15.63;13.03;;;;;;;;;;5002081;28;20232;-83
2023/04/14 01:35:02;;;;;;;16.37;11.47;;;;;;;;;;5002602;28;20231;-86
2023/04/14 01:37:29;;;;;;;17.60;12.30;;;;;;;;;;5002180;28;20220;-86
2023/04/14 01:39:55;;;;;;;14.27;11.20;;;;;;;;;;5001883;28;20235;-86
2023/04/14 01:42:23;;;;;;;13.60;10.70;;;;;;;;;;4999837;28;20229;-86
2023/04/14 01:44:57;;;;;;;13.87;10.63;;;;;;;;;;5005726;28;20216;-85
2023/04/14 01:47:25;;;;;;;12.43;10.17;;;;;;;;;;4993505;28;21290;-83
2023/04/14 01:49:52;;;;;;;11.33;9.07;;;;;;;;;;5002711;28;20311;-86
2023/04/14 01:52:19;;;;;;;13.40;9.70;;;;;;;;;;5000947;28;20314;-86
2023/04/14 01:54:44;;;;;;;11.80;9.47;;;;;;;;;;5001495;28;20595;-83
2023/04/14 01:57:12;;;;;;;13.90;11.10;;;;;;;;;;5019438;28;20224;-85
2023/04/14 01:59:41;;;;;;;12.83;9.90;;;;;;;;;;5034153;28;20227;-85
2023/04/14 02:02:10;;;;;;;13.10;10.23;;;;;;;;;;5000686;28;20223;-84
2023/04/14 02:04:36;;;;;;;14.10;10.53;;;;;;;;;;5017669;28;20219;-86
2023/04/14 02:07:01;;;;;;;11.80;9.53;;;;;;;;;;5024873;28;20593;-86
2023/04/14 02:09:29;;;;;;;12.37;10.00;;;;;;;;;;5018020;28;20254;-85
2023/04/14 02:11:58;;;;;;;10.10;9.03;;;;;;;;;;5007998;28;20289;-82
2023/04/14 02:14:25;;;;;;;14.23;10.33;;;;;;;;;;5021145;28;20212;-81
2023/04/14 02:16:52;;;;;;;13.50;10.70;;;;;;;;;;5036823;28;20212;-81
2023/04/14 02:19:20;;;;;;;12.67;9.87;;;;;;;;;;5019956;28;20279;-82
2023/04/14 02:21:51;;;;;;;12.33;9.73;;;;;;;;;;5020349;28;20242;-81
2023/04/14 02:24:17;;;;;;;11.93;10.63;;;;;;;;;;5021261;28;20218;-82
2023/04/14 02:27:02;;;;;;;11.60;10.17;;;;;;;;;;5037453;28;20200;-83
2023/04/14 02:29:28;;;;;;;12.10;9.33;;;;;;;;;;5011814;28;20274;-82
2023/04/14 02:31:59;;;;;;;11.77;9.13;;;;;;;;;;5020576;28;20223;-84
2023/04/14 02:34:30;;;;;;;12.60;9.07;;;;;;;;;;5042317;28;20224;-81
2023/04/14 02:37:03;;;;;;;11.23;9.07;;;;;;;;;;5024119;28;20224;-81
2023/04/14 02:39:40;;;;;;;12.63;10.33;;;;;;;;;;5020717;28;20220;-81
2023/04/14 02:42:14;;;;;;;12.07;9.77;;;;;;;;;;5010156;28;20217;-83
2023/04/14 02:44:47;;;;;;;12.20;9.90;;;;;;;;;;5021736;28;20262;-83
2023/04/14 02:47:14;;;;;;;11.63;9.53;;;;;;;;;;5018465;28;20257;-81
2023/04/14 02:49:43;;;;;;;10.77;8.20;;;;;;;;;;5052208;28;20290;-82
2023/04/14 02:52:14;;;;;;;10.33;8.07;;;;;;;;;;5028070;28;20213;-82
2023/04/14 02:54:43;;;;;;;9.03;7.13;;;;;;;;;;5020997;28;20220;-82
2023/04/14 02:57:10;;;;;;;11.77;8.30;;;;;;;;;;5019710;28;20196;-83
2023/04/14 02:59:39;;;;;;;9.43;7.97;;;;;;;;;;5039196;28;20228;-82
2023/04/14 03:02:11;;;;;;;10.03;7.77;;;;;;;;;;5035838;28;20346;-83
2023/04/14 03:04:42;;;;;;;7.87;6.90;;;;;;;;;;5034049;28;20295;-83
2023/04/14 03:07:16;;;;;;;9.23;7.43;;;;;;;;;;5016285;28;20226;-85
2023/04/14 03:09:44;;;;;;;8.53;7.53;;;;;;;;;;5020597;28;20216;-86
2023/04/14 03:12:14;;;;;;;10.43;8.40;;;;;;;;;;4999606;28;20226;-85
2023/04/14 03:14:41;;;;;;;10.23;8.47;;;;;;;;;;5013642;28;20266;-84
2023/04/14 03:17:10;;;;;;;9.53;8.53;;;;;;;;;;5013948;28;20622;-85
2023/04/14 03:19:40;;;;;;;9.53;7.47;;;;;;;;;;5046501;28;20228;-83
2023/04/14 03:22:11;;;;;;;10.23;8.50;;;;;;;;;;4992334;28;20232;-83
2023/04/14 03:24:40;;;;;;;9.43;7.73;;;;;;;;;;5022561;28;20322;-82
2023/04/14 03:27:10;;;;;;;10.17;8.63;;;;;;;;;;5000703;28;20569;-86
2023/04/14 03:29:42;;;;;;;11.17;9.03;;;;;;;;;;5029649;28;20322;-85
2023/04/14 03:32:08;;;;;;;12.30;8.20;;;;;;;;;;5029175;28;20224;-85
2023/04/14 03:34:47;;;;;;;10.17;7.87;;;;;;;;;;5029879;28;20637;-85
2023/04/14 03:37:15;;;;;;;12.73;9.23;;;;;;;;;;4996306;28;20632;-86
2023/04/14 03:39:41;;;;;;;9.83;8.73;;;;;;;;;;5012691;28;20251;-86
2023/04/14 03:42:07;;;;;;;10.30;8.53;;;;;;;;;;4998590;28;20216;-83
2023/04/14 03:44:35;;;;;;;9.10;8.10;;;;;;;;;;5029971;28;20226;-85
2023/04/14 03:47:02;;;;;;;12.87;9.07;;;;;;;;;;5008199;28;20295;-84
2023/04/14 03:49:32;;;;;;;11.07;9.20;;;;;;;;;;4964305;28;20228;-86
2023/04/14 03:52:06;;;;;;;10.00;8.70;;;;;;;;;;4988773;28;20283;-84
2023/04/14 03:54:34;;;;;;;11.40;10.27;;;;;;;;;;4979550;28;20478;-84
2023/04/14 03:57:01;;;;;;;10.60;9.40;;;;;;;;;;5011002;28;20212;-84
2023/04/14 03:59:27;;;;;;;8.13;7.23;;;;;;;;;;5009464;28;20305;-83
2023/04/14 04:01:53;;;;;;;8.90;7.33;;;;;;;;;;4998177;28;20208;-83
2023/04/14 04:04:22;;;;;;;9.70;7.80;;;;;;;;;;5002958;28;20231;-82
2023/04/14 04:06:50;;;;;;;9.40;7.60;;;;;;;;;;5010643;28;20220;-85
2023/04/14 04:09:21;;;;;;;9.37;7.40;;;;;;;;;;5010681;28;20284;-83
2023/04/14 04:11:49;;;;;;;9.27;8.33;;;;;;;;;;5016094;28;20216;-84
2023/04/14 04:14:15;;;;;;;10.80;9.07;;;;;;;;;;5012948;28;20252;-83
2023/04/14 04:16:41;;;;;;;10.60;9.43;;;;;;;;;;5028858;28;20223;-85
2023/04/14 04:19:10;;;;;;;10.50;9.30;;;;;;;;;;5004447;28;20593;-84
2023/04/14 04:21:39;;;;;;;9.77;7.63;;;;;;;;;;5038399;28;20204;-82
2023/04/14 04:24:05;;;;;;;9.90;8.17;;;;;;;;;;5005336;28;20278;-81
2023/04/14 04:26:31;;;;;;;12.00;9.17;;;;;;;;;;5036180;28;20224;-83
2023/04/14 04:28:59;;;;;;;12.13;8.20;;;;;;;;;;5026923;28;20224;-86
2023/04/14 04:31:31;;;;;;;8.67;7.77;;;;;;;;;;5000348;28;20569;-84
2023/04/14 04:33:59;;;;;;;8.13;7.33;;;;;;;;;;5004229;28;20227;-84
2023/04/14 04:36:26;;;;;;;9.93;7.70;;;;;;;;;;5039214;28;20287;-83
2023/04/14 04:38:52;;;;;;;10.10;7.17;;;;;;;;;;5019348;28;20216;-84
2023/04/14 04:41:26;;;;;;;9.63;8.37;;;;;;;;;;5020745;28;20220;-83
2023/04/14 04:43:57;;;;;;;10.43;8.00;;;;;;;;;;4996414;28;20267;-84
2023/04/14 04:46:44;;;;;;;10.03;7.73;;;;;;;;;;5021479;28;20355;-83
2023/04/14 04:49:10;;;;;;;9.90;7.37;;;;;;;;;;5013393;28;20228;-85
2023/04/14 04:51:36;;;;;;;8.60;7.17;;;;;;;;;;5019763;28;20300;-84
2023/04/14 04:54:02;;;;;;;9.23;7.87;;;;;;;;;;5000924;28;20213;-82
2023/04/14 04:56:27;;;;;;;8.10;7.30;;;;;;;;;;4997600;28;20517;-84
2023/04/14 04:58:53;;;;;;;7.70;6.67;;;;;;;;;;5000645;28;20216;-84
2023/04/14 05:01:18;;;;;;;8.30;7.50;;;;;;;;;;5032553;28;20600;-85
2023/04/14 05:03:45;;;;;;;6.60;6.00;;;;;;;;;;5017419;28;20648;-84
2023/04/14 05:06:12;;;;;;;9.73;7.20;;;;;;;;;;5017304;28;20224;-85
2023/04/14 05:08:40;;;;;;;8.53;7.33;;;;;;;;;;5051676;28;20543;-86
2023/04/14 05:11:10;;;;;;;6.97;6.27;;;;;;;;;;5004314;28;20319;-85
2023/04/14 05:13:40;;;;;;;8.17;6.97;;;;;;;;;;5020517;28;20224;-85
2023/04/14 05:16:07;;;;;;;8.80;7.40;;;;;;;;;;5020276;28;20227;-85
2023/04/14 05:18:38;;;;;;;10.43;6.90;;;;;;;;;;5018690;28;20220;-83
2023/04/14 05:21:08;;;;;;;9.53;7.00;;;;;;;;;;4987789;28;20598;-85
2023/04/14 05:23:35;;;;;;;8.83;7.03;;;;;;;;;;5001298;28;20227;-83
2023/04/14 05:26:01;;;;;;;8.40;7.07;;;;;;;;;;5027517;28;20231;-83
2023/04/14 05:28:26;;;;;;;9.23;7.07;;;;;;;;;;5027624;28;20762;-85
2023/04/14 05:30:52;;;;;;;9.90;7.47;;;;;;;;;;5018864;28;20236;-85
2023/04/14 05:33:18;;;;;;;9.20;7.03;;;;;;;;;;5002365;28;20225;-84
2023/04/14 05:35:51;;;;;;;8.23;7.23;;;;;;;;;;5003781;28;20790;-83
2023/04/14 05:38:17;;;;;;;10.40;7.43;;;;;;;;;;5004397;28;20220;-85
2023/04/14 05:40:46;;;;;;;9.60;7.43;;;;;;;;;;5018885;28;20369;-86
2023/04/14 05:44:18;;;;;;;8.40;7.27;;;;;;;;;;5016478;28;20781;-83
2023/04/14 05:46:56;;;;;;;7.50;6.80;;;;;;;;;;5052116;28;20309;-86
2023/04/14 05:49:22;;;;;;;11.20;7.23;;;;;;;;;;5009332;28;20354;-85
2023/04/14 05:52:35;;;;;;;9.80;7.70;;;;;;;;;;5003442;28;20224;-85
2023/04/14 05:55:04;;;;;;;10.10;8.87;;;;;;;;;;5035532;28;21133;-84
2023/04/14 05:57:38;;;;;;;11.00;9.60;;;;;;;;;;5031764;28;20275;-85
2023/04/14 06:00:24;;;;;;;10.30;8.23;;;;;;;;;;5015524;28;20244;-85
2023/04/14 06:03:05;;;;;;;10.40;8.13;;;;;;;;;;5002806;28;20223;-86
2023/04/14 06:05:47;;;;;;;9.87;7.60;;;;;;;;;;5005154;28;20216;-83
2023/04/14 06:08:28;;;;;;;8.93;7.70;;;;;;;;;;5017014;28;20226;-86
2023/04/14 06:11:24;;;;;;;11.97;10.77;;;;;;;;;;5035094;28;20224;-85
2023/04/14 06:13:58;;;;;;;11.70;10.50;;;;;;;;;;5035976;28;20227;-83
2023/04/14 06:16:39;;;;;;;11.70;10.50;;;;;;;;;;5005681;28;20228;-85
2023/04/14 06:19:22;;;;;;;10.07;9.03;;;;;;;;;;5037322;28;20232;-86
2023/04/14 06:25:13;;;;;;;13.00;9.97;;;;;;;;;;5032298;28;20222;-83
2023/04/14 06:28:08;;;;;;;13.30;9.87;;;;;;;;;;5032686;28;20216;-84
2023/04/14 06:30:49;;;;;;;14.30;10.63;;;;;;;;;;5016325;28;20216;-86
2023/04/14 06:33:20;;;;;;;13.57;10.80;;;;;;;;;;5021364;28;20228;-87
2023/04/14 06:35:51;;;;;;;11.70;9.97;;;;;;;;;;5039825;28;20590;-84
2023/04/14 06:38:26;;;;;;;12.27;10.13;;;;;;;;;;4999774;28;20236;-83
2023/04/14 06:40:56;;;;;;;12.23;9.90;;;;;;;;;;5048880;28;20228;-83
2023/04/14 06:43:44;;;;;;;11.27;10.10;;;;;;;;;;5017822;28;20228;-85
2023/04/14 06:46:09;;;;;;;25.97;19.03;;;;;;;;;;5050032;28;20251;-86
2023/04/14 06:48:35;;;;;;;25.27;19.17;;;;;;;;;;5050521;28;20238;-84
2023/04/14 06:51:18;;;;;;;13.97;10.70;;;;;;;;;;5003751;28;20231;-83
2023/04/14 06:53:44;;;;;;;13.20;11.37;;;;;;;;;;5011232;28;20901;-85
2023/04/14 06:56:18;;;;;;;13.13;10.50;;;;;;;;;;5017146;28;20220;-83
2023/04/14 07:02:33;;;;;;;15.70;13.87;;;;;;;;;;5043233;28;20211;-84
2023/04/14 07:05:11;;;;;;;16.23;14.23;;;;;;;;;;4990642;28;20259;-84
2023/04/14 07:11:20;;;;;;;16.00;14.30;;;;;;;;;;4952934;28;20738;-84
2023/04/14 07:14:50;;;;;;;17.67;14.77;;;;;;;;;;4922276;29;20791;-85
2023/04/14 07:21:36;;;;;;;16.50;13.80;;;;;;;;;;5034194;28;20239;-86
2023/04/14 07:24:40;;;;;;;17.57;13.77;;;;;;;;;;5001935;28;20220;-84
2023/04/14 07:27:14;;;;;;;93.77;65.80;;;;;;;;;;5004699;28;20224;-85
2023/04/14 07:29:45;;;;;;;17.77;14.67;;;;;;;;;;4994985;28;20228;-85
2023/04/14 07:32:12;;;;;;;17.73;14.00;;;;;;;;;;4983371;28;20269;-86
2023/04/14 07:36:12;;;;;;;18.73;11.80;;;;;;;;;;5013840;28;20235;-85
2023/04/14 07:38:35;;;;;;;12.00;9.93;;;;;;;;;;5011810;28;20220;-85
2023/04/14 07:41:13;;;;;;;12.67;10.03;;;;;;;;;;5002421;28;20231;-84
2023/04/14 07:43:42;;;;;;;15.27;9.57;;;;;;;;;;4994354;28;20733;-84
2023/04/14 07:49:30;;;;;;;12.80;9.23;;;;;;;;;;5031633;28;20227;-83
2023/04/14 07:52:36;;;;;;;11.53;8.37;;;;;;;;;;5031978;28;20224;-84
2023/04/14 07:55:16;;;;;;;12.43;8.10;;;;;;;;;;4997230;28;20232;-84
2023/04/14 07:58:08;;;;;;;9.93;7.20;;;;;;;;;;5019203;28;20235;-85
2023/04/14 08:00:33;;;;;;;11.40;7.73;;;;;;;;;;5006732;28;21175;-83
2023/04/14 08:03:35;;;;;;;11.93;8.17;;;;;;;;;;5023137;28;20223;-85
2023/04/14 08:06:21;;;;;;;10.50;4.93;;;;;;;;;;5012857;28;20237;-83
2023/04/14 08:12:26;;;;;;;8.07;3.80;;;;;;;;;;5021531;28;20238;-85
2023/04/14 08:15:32;;;;;;;7.13;3.57;;;;;;;;;;5030711;28;20693;-85
2023/04/14 08:21:25;;;;;;;9.80;3.30;;;;;;;;;;5032638;28;20220;-86
2023/04/14 08:24:59;;;;;;;6.73;3.70;;;;;;;;;;5004108;28;20243;-86
2023/04/14 08:27:40;;;;;;;5.13;3.10;;;;;;;;;;4921283;29;20238;-83
2023/04/14 08:30:41;;;;;;;8.17;2.47;;;;;;;;;;4937595;28;20239;-85
2023/04/14 08:33:06;;;;;;;7.83;2.20;;;;;;;;;;4925261;28;20260;-85
2023/04/14 08:35:38;;;;;;;6.80;1.87;;;;;;;;;;4914149;29;20257;-85
2023/04/14 08:38:56;;;;;;;4.83;1.53;;;;;;;;;;4899857;28;20300;-87
2023/04/14 08:41:24;;;;;;;2.87;1.10;;;;;;;;;;4949354;28;20244;-84
2023/04/14 08:43:52;;;;;;;3.33;1.20;;;;;;;;;;4926568;28;20222;-84
2023/04/14 08:47:04;;;;;;;2.60;1.20;;;;;;;;;;5009817;28;20646;-85
2023/04/14 08:53:01;;;;;;;3.60;1.30;;;;;;;;;;5032702;28;20285;-86
2023/04/14 08:55:49;;;;;;;2.73;1.27;;;;;;;;;;5006255;28;20282;-86
2023/04/14 08:58:14;;;;;;;3.43;1.40;;;;;;;;;;5050357;28;20304;-85
2023/04/14 09:01:12;;;;;;;4.73;1.33;;;;;;;;;;5007325;28;20233;-85
2023/04/14 09:03:40;;;;;;;1.97;1.20;;;;;;;;;;4944655;29;20231;-84
2023/04/14 09:06:20;;;;;;;4.27;1.30;;;;;;;;;;5032705;28;20235;-87
2023/04/14 09:09:11;;;;;;;3.33;1.27;;;;;;;;;;5040484;28;20736;-84
2023/04/14 09:11:54;;;;;;;3.53;1.20;;;;;;;;;;5006797;28;20216;-85
2023/04/14 09:14:35;;;;;;;4.00;1.30;;;;;;;;;;5013891;28;20319;-84
2023/04/14 09:17:01;;;;;;;2.63;1.37;;;;;;;;;;5026062;28;20216;-85
2023/04/14 09:19:34;;;;;;;4.80;1.43;;;;;;;;;;5013728;28;20231;-87
2023/04/14 09:22:03;;;;;;;4.87;1.60;;;;;;;;;;5000739;28;20266;-84
2023/04/14 09:24:33;;;;;;;2.77;1.40;;;;;;;;;;5020615;28;20227;-86
2023/04/14 09:27:41;;;;;;;3.27;1.10;;;;;;;;;;5007583;28;20228;-85
2023/04/14 09:30:10;;;;;;;3.30;1.10;;;;;;;;;;5016405;28;20251;-86
2023/04/14 09:32:38;;;;;;;3.67;1.10;;;;;;;;;;5006547;28;20227;-86
2023/04/14 09:35:12;;;;;;;2.63;1.30;;;;;;;;;;5019826;28;20224;-85
2023/04/14 09:38:10;;;;;;;3.60;1.27;;;;;;;;;;5022228;28;20290;-84
2023/04/14 09:40:43;;;;;;;3.83;1.40;;;;;;;;;;5020226;28;20224;-85
2023/04/14 09:43:22;;;;;;;3.87;1.27;;;;;;;;;;5011568;28;20224;-86
2023/04/14 09:46:29;;;;;;;3.40;1.20;;;;;;;;;;5006841;28;20228;-86
2023/04/14 09:48:55;;;;;;;5.23;1.30;;;;;;;;;;5032737;28;20224;-85
2023/04/14 09:51:38;;;;;;;3.17;1.10;;;;;;;;;;5018971;28;20220;-86
2023/04/14 09:54:27;;;;;;;2.63;1.13;;;;;;;;;;5029503;28;20605;-87
2023/04/14 09:57:34;;;;;;;2.90;1.10;;;;;;;;;;5028102;28;20271;-87
2023/04/14 10:03:48;;;;;;;6.33;1.30;;;;;;;;;;4937532;29;20363;-84
2023/04/14 10:06:31;;;;;;;3.97;1.30;;;;;;;;;;4922709;29;20223;-86
2023/04/14 10:12:43;;;;;;;5.23;1.13;;;;;;;;;;4882440;29;20303;-86
2023/04/14 10:15:23;;;;;;;3.97;1.00;;;;;;;;;;4848554;29;20226;-86
2023/04/14 10:18:35;;;;;;;1.63;0.90;;;;;;;;;;4896430;29;20297;-85
2023/04/14 10:21:21;;;;;;;7.13;1.20;;;;;;;;;;4882574;29;20237;-86
2023/04/14 10:23:55;;;;;;;2.73;0.83;;;;;;;;;;4866529;29;20685;-86
2023/04/14 10:26:29;;;;;;;4.20;1.30;;;;;;;;;;4913954;28;20277;-87
2023/04/14 10:29:30;;;;;;;2.50;1.10;;;;;;;;;;4995563;28;20240;-85
2023/04/14 10:32:23;;;;;;;3.60;1.33;;;;;;;;;;4965141;28;20222;-86
2023/04/14 10:35:51;;;;;;;3.73;1.10;;;;;;;;;;4979246;28;20247;-86
2023/04/14 10:38:16;;;;;;;2.97;1.10;;;;;;;;;;4973200;28;20232;-87
2023/04/14 10:41:37;;;;;;;1.83;1.10;;;;;;;;;;4972042;28;20233;-85
2023/04/14 10:44:03;;;;;;;2.23;0.90;;;;;;;;;;4993636;28;20221;-87
2023/04/14 10:47:28;;;;;;;4.27;1.20;;;;;;;;;;4975401;28;20217;-86
2023/04/14 11:13:32;;;;;;;2.23;0.83;;;;;;;;;;4988424;28;20375;-88
2023/04/14 11:16:05;;;;;;;1.83;1.00;;;;;;;;;;4978538;28;20257;-87
2023/04/14 11:18:34;;;;;;;3.17;1.70;;;;;;;;;;4999180;28;20259;-86
2023/04/14 11:21:16;;;;;;;2.33;1.00;;;;;;;;;;5029115;28;20251;-85
2023/04/14 11:23:42;;;;;;;2.30;1.00;;;;;;;;;;4990645;28;20231;-85
2023/04/14 11:26:16;;;;;;;2.23;1.17;;;;;;;;;;4999358;28;20251;-85
2023/04/14 11:28:44;;;;;;;3.17;1.10;;;;;;;;;;5023543;28;20311;-86
2023/04/14 11:31:13;;;;;;;2.67;1.03;;;;;;;;;;4995122;28;20258;-86
2023/04/14 11:33:40;;;;;;;5.37;1.30;;;;;;;;;;5035771;28;20349;-85
2023/04/14 11:36:06;;;;;;;4.30;1.40;;;;;;;;;;4992350;28;20228;-85
2023/04/14 11:38:34;;;;;;;3.47;1.57;;;;;;;;;;4997404;28;20215;-86
2023/04/14 11:41:02;;;;;;;3.37;2.00;;;;;;;;;;5023657;28;20231;-87
2023/04/14 11:43:31;;;;;;;3.83;2.30;;;;;;;;;;5015001;28;20235;-87
2023/04/14 11:45:57;;;;;;;4.53;2.00;;;;;;;;;;5008657;28;20220;-86
2023/04/14 11:48:26;;;;;;;3.60;2.40;;;;;;;;;;5007970;28;20227;-85
2023/04/14 11:50:55;;;;;;;5.03;2.57;;;;;;;;;;5005550;28;20229;-84
2023/04/14 11:53:20;;;;;;;3.97;2.30;;;;;;;;;;5019511;28;20234;-85
2023/04/14 11:55:47;;;;;;;2.60;2.00;;;;;;;;;;5020340;28;20692;-84
2023/04/14 11:58:20;;;;;;;3.20;2.03;;;;;;;;;;5018844;28;20243;-86
2023/04/14 12:00:49;;;;;;;2.83;2.10;;;;;;;;;;5035970;28;20224;-84
2023/04/14 12:03:14;;;;;;;2.87;2.47;;;;;;;;;;5020410;28;20215;-87
2023/04/14 12:05:40;;;;;;;5.00;2.43;;;;;;;;;;5003104;28;20248;-84
2023/04/14 12:08:11;;;;;;;4.80;2.87;;;;;;;;;;5003878;28;20265;-84
2023/04/14 12:10:37;;;;;;;5.57;3.17;;;;;;;;;;5020541;28;20242;-83
2023/04/14 12:13:07;;;;;;;7.43;4.60;;;;;;;;;;5002574;28;20741;-85
2023/04/14 12:15:35;;;;;;;4.23;2.80;;;;;;;;;;5017438;28;20231;-85
2023/04/14 12:18:05;;;;;;;3.07;2.70;;;;;;;;;;5000553;28;20223;-86
2023/04/14 12:20:46;;;;;;;3.13;2.60;;;;;;;;;;5035586;28;20211;-84
2023/04/14 12:23:12;;;;;;;2.93;2.53;;;;;;;;;;5032935;28;20217;-86
2023/04/14 12:25:40;;;;;;;3.00;2.70;;;;;;;;;;5038716;28;20235;-85
2023/04/14 12:28:07;;;;;;;3.20;2.90;;;;;;;;;;4999365;28;20311;-88
2023/04/14 12:30:33;;;;;;;4.43;2.70;;;;;;;;;;5025505;28;20321;-84
2023/04/14 12:33:09;;;;;;;4.37;2.70;;;;;;;;;;5030152;28;20223;-85
2023/04/14 12:35:39;;;;;;;4.63;2.67;;;;;;;;;;5008207;28;20224;-87
2023/04/14 12:38:14;;;;;;;3.93;2.93;;;;;;;;;;5024348;28;20239;-86
2023/04/14 12:40:44;;;;;;;4.63;2.90;;;;;;;;;;5019138;28;20235;-87
2023/04/14 12:43:10;;;;;;;4.50;3.27;;;;;;;;;;5018024;28;20236;-86
2023/04/14 12:45:45;;;;;;;3.67;3.20;;;;;;;;;;5004637;28;20221;-86
2023/04/14 12:48:18;;;;;;;5.03;3.50;;;;;;;;;;5055159;28;20215;-85
2023/04/14 12:50:43;;;;;;;4.30;3.00;;;;;;;;;;5023564;28;20722;-85
2023/04/14 12:53:25;;;;;;;4.23;2.87;;;;;;;;;;5025301;28;20219;-86
2023/04/14 12:56:26;;;;;;;3.87;2.80;;;;;;;;;;5024501;28;20234;-86
2023/04/14 12:58:56;;;;;;;5.07;2.90;;;;;;;;;;5037169;28;20263;-84
2023/04/14 13:01:24;;;;;;;3.67;2.70;;;;;;;;;;5008399;28;20220;-87
2023/04/14 13:03:51;;;;;;;4.60;3.27;;;;;;;;;;5046561;28;20242;-88
2023/04/14 13:06:17;;;;;;;3.43;2.70;;;;;;;;;;4990598;28;20227;-87
2023/04/14 13:08:45;;;;;;;3.77;2.50;;;;;;;;;;5018350;28;20216;-90
2023/04/14 13:11:11;;;;;;;4.27;3.20;;;;;;;;;;5038497;28;20334;-85
2023/04/14 13:13:37;;;;;;;4.17;2.70;;;;;;;;;;5023287;28;20223;-87
2023/04/14 13:16:05;;;;;;;3.37;2.50;;;;;;;;;;5018893;28;20757;-87
2023/04/14 13:18:30;;;;;;;3.83;2.70;;;;;;;;;;5003575;28;20228;-86
2023/04/14 13:20:56;;;;;;;3.40;2.50;;;;;;;;;;5023464;28;20232;-86
2023/04/14 13:23:24;;;;;;;3.10;2.70;;;;;;;;;;5019910;28;20219;-87
2023/04/14 13:25:57;;;;;;;3.33;3.03;;;;;;;;;;5024915;28;20215;-88
2023/04/14 13:28:23;;;;;;;5.93;3.30;;;;;;;;;;5036213;28;20223;-87
2023/04/14 13:30:51;;;;;;;3.87;2.97;;;;;;;;;;5010015;28;20315;-85
2023/04/14 13:33:19;;;;;;;5.30;2.80;;;;;;;;;;5019002;28;20307;-85
2023/04/14 13:35:47;;;;;;;3.73;2.87;;;;;;;;;;5024619;28;20215;-86
2023/04/14 13:38:15;;;;;;;4.07;3.03;;;;;;;;;;5023559;28;20223;-86
2023/04/14 13:40:41;;;;;;;3.77;2.43;;;;;;;;;;5001441;28;20243;-85
2023/04/14 13:43:07;;;;;;;3.83;2.60;;;;;;;;;;5004285;28;20227;-86
2023/04/14 13:45:34;;;;;;;3.23;2.30;;;;;;;;;;5022601;28;20238;-85
2023/04/14 13:48:02;;;;;;;2.40;2.10;;;;;;;;;;5002063;28;20212;-85
2023/04/14 13:50:28;;;;;;;4.67;2.53;;;;;;;;;;4986389;28;20258;-85
2023/04/14 13:52:59;;;;;;;5.03;2.40;;;;;;;;;;5038633;28;20726;-87
2023/04/14 13:55:24;;;;;;;3.37;2.50;;;;;;;;;;5003108;28;20219;-84
2023/04/14 13:57:50;;;;;;;2.70;2.33;;;;;;;;;;5039764;28;20345;-85
2023/04/14 14:00:16;;;;;;;2.87;2.53;;;;;;;;;;5008786;28;20224;-85
2023/04/14 14:02:41;;;;;;;2.93;2.30;;;;;;;;;;5021324;28;20215;-86
2023/04/14 14:05:09;;;;;;;2.90;2.60;;;;;;;;;;5019366;28;20208;-86
2023/04/14 14:07:35;;;;;;;3.27;2.70;;;;;;;;;;5004233;28;20212;-86
2023/04/14 14:10:01;;;;;;;4.63;2.63;;;;;;;;;;5035690;28;20720;-86
2023/04/14 14:12:26;;;;;;;3.57;2.40;;;;;;;;;;5044987;28;20216;-86
2023/04/14 14:14:52;;;;;;;2.67;2.40;;;;;;;;;;5022995;28;20225;-85
2023/04/14 14:17:18;;;;;;;3.97;2.63;;;;;;;;;;5004829;28;20640;-84
2023/04/14 14:19:44;;;;;;;2.93;2.40;;;;;;;;;;5008016;28;20241;-85
2023/04/14 14:22:11;;;;;;;2.40;2.20;;;;;;;;;;4987007;28;20247;-85
2023/04/14 14:24:39;;;;;;;3.45;2.45;;;;;;;;;;5020575;28;20223;-84
2023/04/14 14:27:07;;;;;;;2.40;2.20;;;;;;;;;;5018119;28;20996;-86
2023/04/14 14:29:33;;;;;;;3.35;2.47;;;;;;;;;;5017132;28;20240;-85
2023/04/14 14:32:01;;;;;;;1.80;1.70;;;;;;;;;;5036932;28;20231;-84
2023/04/14 14:34:29;;;;;;;2.40;1.90;;;;;;;;;;5020056;28;20624;-85
2023/04/14 14:36:59;;;;;;;2.10;1.63;;;;;;;;;;5018698;28;20247;-87
2023/04/14 14:39:25;;;;;;;2.57;1.80;;;;;;;;;;4979561;28;1182560;-87
2023/04/14 14:41:51;;;;;;;2.73;1.63;;;;;;;;;;5034773;28;20211;-84
2023/04/14 14:44:18;;;;;;;2.97;1.63;;;;;;;;;;5000135;28;20226;-86
2023/04/14 14:46:44;;;;;;;2.67;1.60;;;;;;;;;;5003778;28;20211;-87
2023/04/14 14:49:12;;;;;;;2.63;1.77;;;;;;;;;;5001451;28;20232;-85
2023/04/14 14:51:37;;;;;;;3.13;1.97;;;;;;;;;;5002242;28;20291;-84
2023/04/14 14:54:03;;;;;;;2.13;1.93;;;;;;;;;;5002147;28;20438;-87
2023/04/14 14:56:29;;;;;;;2.20;2.00;;;;;;;;;;5003527;28;20361;-83
2023/04/14 14:58:59;;;;;;;3.60;2.37;;;;;;;;;;5020982;28;20294;-84
2023/04/14 15:01:29;;;;;;;3.03;2.50;;;;;;;;;;5016260;28;20250;-85
2023/04/14 15:03:57;;;;;;;2.90;2.20;;;;;;;;;;5015684;28;20314;-84
2023/04/14 15:06:28;;;;;;;2.67;2.30;;;;;;;;;;5005642;28;20224;-86
2023/04/14 15:11:40;;;;;;;2.63;2.10;;;;;;;;;;5032874;28;20220;-74
2023/04/14 15:14:08;;;;;;;3.30;2.03;;;;;;;;;;5000328;28;20220;-74
2023/04/14 15:16:36;;;;;;;2.67;2.10;;;;;;;;;;5028792;28;20212;-74
2023/04/14 15:19:02;;;;;;;2.10;1.90;;;;;;;;;;5012896;28;20205;-74
2023/04/14 15:21:33;;;;;;;2.10;1.90;;;;;;;;;;4948673;28;20221;-74
2023/04/14 15:23:59;;;;;;;2.17;1.80;;;;;;;;;;4979750;28;20745;-74
2023/04/14 15:26:24;;;;;;;2.53;2.30;;;;;;;;;;4983144;28;20220;-74
2023/04/14 15:28:50;;;;;;;2.80;2.20;;;;;;;;;;4979735;28;20227;-74
2023/04/14 15:31:15;;;;;;;3.40;2.40;;;;;;;;;;4978958;28;20648;-74
2023/04/14 15:33:44;;;;;;;3.10;2.40;;;;;;;;;;4996445;28;20255;-74
2023/04/14 15:36:10;;;;;;;5.20;2.57;;;;;;;;;;5025400;28;20221;-74
2023/04/14 15:38:36;;;;;;;3.63;2.90;;;;;;;;;;4966148;28;20704;-74
2023/04/14 15:41:01;;;;;;;2.73;2.50;;;;;;;;;;4975453;28;20225;-73
2023/04/14 15:43:29;;;;;;;3.40;2.80;;;;;;;;;;5002131;28;20278;-73
2023/04/14 15:45:57;;;;;;;3.40;2.87;;;;;;;;;;4977167;28;20287;-74
2023/04/14 15:48:25;;;;;;;3.53;3.03;;;;;;;;;;5013477;28;20220;-74
2023/04/14 15:50:50;;;;;;;3.20;2.93;;;;;;;;;;4976859;28;20284;-74
2023/04/14 15:53:16;;;;;;;3.83;2.90;;;;;;;;;;5010016;28;20221;-74
2023/04/14 15:55:43;;;;;;;4.50;3.20;;;;;;;;;;4994357;28;20324;-74
2023/04/14 15:58:10;;;;;;;3.67;2.67;;;;;;;;;;4991997;28;20217;-74
2023/04/14 16:00:43;;;;;;;2.93;2.43;;;;;;;;;;5008812;28;20230;-74
2023/04/14 16:03:10;;;;;;;3.13;2.20;;;;;;;;;;4987330;28;20706;-74
2023/04/14 16:05:38;;;;;;;2.37;2.17;;;;;;;;;;5005754;28;20345;-74
2023/04/14 16:08:04;;;;;;;2.00;1.80;;;;;;;;;;5012088;28;20563;-73
2023/04/14 16:10:32;;;;;;;2.00;1.90;;;;;;;;;;4983265;28;20232;-74
2023/04/14 16:12:58;;;;;;;2.60;2.13;;;;;;;;;;4981753;28;20265;-74